createdAt,value
2023-01-29T00:02:22.776Z,12.30
2023-01-29T00:04:51.248Z,14.55
2023-01-29T00:07:18.759Z,11.73
2023-01-29T00:09:45.549Z,13.57
2023-01-29T00:12:31.509Z,14.63
2023-01-29T00:14:59.669Z,13.55
2023-01-29T00:17:26.467Z,13.32
2023-01-29T00:19:53.316Z,10.80
2023-01-29T00:22:20.674Z,9.80
2023-01-29T00:24:47.989Z,10.38
2023-01-29T00:27:14.998Z,9.85
2023-01-29T00:29:43.242Z,8.43
2023-01-29T00:32:10.034Z,9.35
2023-01-29T00:34:36.884Z,13.25
2023-01-29T00:37:03.734Z,9.80
2023-01-29T00:39:45.983Z,7.75
2023-01-29T00:42:14.197Z,9.57
2023-01-29T00:44:41.098Z,7.03
2023-01-29T00:47:09.771Z,7.50
2023-01-29T00:49:36.613Z,9.27
2023-01-29T00:52:03.722Z,7.40
2023-01-29T00:54:32.939Z,7.72
2023-01-29T00:57:00.150Z,12.07
2023-01-29T00:59:26.999Z,10.48
2023-01-29T01:01:54.067Z,8.77
2023-01-29T01:04:22.759Z,8.65
2023-01-29T01:06:49.732Z,8.43
2023-01-29T01:09:16.650Z,9.60
2023-01-29T01:11:44.011Z,10.25
2023-01-29T01:14:10.920Z,9.02
2023-01-29T01:16:37.923Z,10.27
2023-01-29T01:19:05.647Z,10.55
2023-01-29T01:21:34.150Z,9.77
2023-01-29T01:24:01.027Z,9.45
2023-01-29T01:26:28.023Z,10.15
2023-01-29T01:28:54.806Z,9.13
2023-01-29T01:31:21.917Z,9.18
2023-01-29T01:33:48.879Z,8.30
2023-01-29T01:36:15.803Z,21.92
2023-01-29T01:38:44.633Z,9.25
2023-01-29T01:41:17.802Z,9.57
2023-01-29T01:43:49.930Z,9.80
2023-01-29T01:46:16.950Z,9.73
2023-01-29T01:48:46.360Z,10.73
2023-01-29T01:51:15.074Z,11.75
2023-01-29T01:53:50.299Z,13.40
2023-01-29T01:56:22.814Z,11.05
2023-01-29T01:58:54.758Z,13.75
2023-01-29T02:01:25.729Z,13.10
2023-01-29T02:03:56.856Z,12.30
2023-01-29T02:06:24.078Z,18.48
2023-01-29T02:08:56.812Z,12.32
2023-01-29T02:11:24.662Z,12.25
2023-01-29T02:13:52.633Z,11.65
2023-01-29T02:16:23.971Z,11.90
2023-01-29T02:21:36.606Z,11.90
2023-01-29T02:24:32.857Z,11.52
2023-01-29T02:27:08.179Z,11.50
2023-01-29T02:29:45.684Z,13.18
2023-01-29T02:32:21.146Z,11.15
2023-01-29T02:35:00.547Z,11.25
2023-01-29T02:37:36.510Z,12.32
2023-01-29T02:40:12.713Z,11.35
2023-01-29T02:42:47.689Z,12.32
2023-01-29T02:45:22.623Z,12.82
2023-01-29T02:47:56.212Z,12.85
2023-01-29T02:50:28.361Z,13.90
2023-01-29T02:53:02.069Z,12.75
2023-01-29T02:55:34.706Z,15.25
2023-01-29T02:58:11.370Z,13.57
2023-01-29T03:00:42.944Z,15.27
2023-01-29T03:03:16.046Z,15.43
2023-01-29T03:05:50.479Z,20.98
2023-01-29T03:08:23.639Z,15.82
2023-01-29T03:10:56.096Z,15.80
2023-01-29T03:13:30.940Z,20.00
2023-01-29T03:16:05.708Z,17.02
2023-01-29T03:18:37.225Z,16.55
2023-01-29T03:21:11.188Z,16.65
2023-01-29T03:23:38.632Z,17.13
2023-01-29T03:26:07.705Z,16.23
2023-01-29T03:28:34.844Z,16.98
2023-01-29T03:31:10.071Z,18.00
2023-01-29T03:33:43.991Z,24.65
2023-01-29T03:36:16.877Z,18.85
2023-01-29T03:38:44.994Z,17.60
2023-01-29T03:41:23.316Z,19.85
2023-01-29T03:43:56.867Z,18.05
2023-01-29T03:46:30.994Z,18.20
2023-01-29T03:49:02.569Z,20.85
2023-01-29T03:51:35.081Z,17.95
2023-01-29T03:54:09.946Z,17.92
2023-01-29T03:56:51.362Z,19.92
2023-01-29T04:01:57.041Z,17.27
2023-01-29T04:04:28.199Z,21.98
2023-01-29T04:06:58.284Z,18.02
2023-01-29T04:09:31.108Z,19.02
2023-01-29T04:12:02.701Z,17.38
2023-01-29T04:14:31.483Z,18.13
2023-01-29T04:17:03.603Z,19.95
2023-01-29T04:19:30.668Z,18.50
2023-01-29T04:22:06.082Z,16.75
2023-01-29T04:24:34.633Z,16.23
2023-01-29T04:27:18.528Z,16.25
2023-01-29T04:29:57.013Z,16.10
2023-01-29T04:32:32.285Z,18.27
2023-01-29T04:35:17.430Z,14.73
2023-01-29T04:37:54.409Z,15.48
2023-01-29T04:40:26.083Z,15.02
2023-01-29T04:43:04.690Z,15.13
2023-01-29T04:45:43.489Z,14.63
2023-01-29T04:48:21.181Z,15.80
2023-01-29T04:50:58.388Z,15.70
2023-01-29T04:53:36.246Z,14.73
2023-01-29T04:56:13.559Z,16.50
2023-01-29T04:58:47.478Z,16.90
2023-01-29T05:01:19.412Z,15.60
2023-01-29T05:03:52.287Z,16.77
2023-01-29T05:06:20.555Z,16.92
2023-01-29T05:08:49.353Z,15.60
2023-01-29T05:11:18.985Z,16.42
2023-01-29T05:13:48.827Z,16.05
2023-01-29T05:16:28.179Z,18.85
2023-01-29T05:18:57.061Z,19.02
2023-01-29T05:21:24.959Z,17.48
2023-01-29T05:24:07.410Z,30.08
2023-01-29T05:26:35.286Z,18.25
2023-01-29T05:29:02.163Z,18.40
2023-01-29T05:31:29.166Z,16.10
2023-01-29T05:33:57.942Z,16.30
2023-01-29T05:36:25.184Z,15.15
2023-01-29T05:38:51.998Z,15.90
2023-01-29T05:41:19.921Z,17.23
2023-01-29T05:43:46.780Z,20.33
2023-01-29T05:46:13.948Z,18.58
2023-01-29T05:48:40.912Z,18.17
2023-01-29T05:51:09.213Z,21.40
2023-01-29T05:53:36.258Z,20.33
2023-01-29T05:56:04.027Z,22.83
2023-01-29T05:58:31.521Z,25.67
2023-01-29T06:00:58.449Z,24.50
2023-01-29T06:03:25.363Z,28.33
2023-01-29T06:05:52.352Z,28.40
2023-01-29T06:08:22.765Z,30.38
2023-01-29T06:10:49.629Z,26.90
2023-01-29T06:13:16.539Z,26.55
2023-01-29T06:15:52.887Z,27.30
2023-01-29T06:18:20.603Z,28.60
2023-01-29T06:20:49.669Z,28.58
2023-01-29T06:23:16.634Z,32.33
2023-01-29T06:25:45.138Z,29.52
2023-01-29T06:28:11.963Z,30.33
2023-01-29T06:30:38.878Z,30.98
2023-01-29T06:33:06.290Z,29.40
2023-01-29T06:35:33.201Z,31.80
2023-01-29T06:38:00.147Z,37.67
2023-01-29T06:40:27.239Z,39.88
2023-01-29T06:42:55.583Z,37.72
2023-01-29T06:45:23.072Z,38.15
2023-01-29T06:47:49.848Z,39.35
2023-01-29T06:50:18.049Z,41.20
2023-01-29T06:52:45.220Z,44.97
2023-01-29T06:55:12.666Z,43.80
2023-01-29T06:57:40.037Z,40.60
2023-01-29T07:00:11.127Z,40.80
2023-01-29T07:02:38.044Z,38.33
2023-01-29T07:05:05.867Z,36.90
2023-01-29T07:07:35.315Z,35.08
2023-01-29T07:10:02.477Z,36.97
2023-01-29T07:12:29.427Z,37.65
2023-01-29T07:14:56.329Z,35.53
2023-01-29T07:17:24.677Z,38.53
2023-01-29T07:19:51.844Z,36.88
2023-01-29T07:22:18.747Z,37.28
2023-01-29T07:24:45.498Z,35.75
2023-01-29T07:27:12.390Z,37.17
2023-01-29T07:29:40.588Z,32.33
2023-01-29T07:32:14.530Z,42.03
2023-01-29T07:34:43.458Z,34.53
2023-01-29T07:37:13.227Z,35.20
2023-01-29T07:39:40.045Z,35.05
2023-01-29T07:42:07.768Z,37.08
2023-01-29T07:44:34.589Z,41.10
2023-01-29T07:47:01.661Z,40.00
2023-01-29T07:49:28.561Z,40.97
2023-01-29T07:51:58.352Z,45.40
2023-01-29T07:54:25.265Z,44.42
2023-01-29T07:56:52.491Z,45.72
2023-01-29T07:59:19.455Z,48.00
2023-01-29T08:01:46.285Z,49.30
2023-01-29T08:04:46.272Z,48.67
2023-01-29T08:07:14.736Z,51.08
2023-01-29T08:09:44.549Z,53.55
2023-01-29T08:12:12.347Z,52.35
2023-01-29T08:14:42.065Z,57.20
2023-01-29T08:17:10.793Z,55.47
2023-01-29T08:19:38.041Z,53.30
2023-01-29T08:22:05.431Z,51.25
2023-01-29T08:24:47.738Z,51.95
2023-01-29T08:27:22.808Z,57.15
2023-01-29T08:29:49.657Z,57.75
2023-01-29T08:32:16.531Z,56.05
2023-01-29T08:34:43.210Z,53.17
2023-01-29T08:37:10.201Z,55.97
2023-01-29T08:39:38.650Z,52.38
2023-01-29T08:42:05.500Z,52.25
2023-01-29T08:44:32.692Z,63.10
2023-01-29T08:46:59.688Z,57.28
2023-01-29T08:49:28.224Z,61.50
2023-01-29T08:51:55.250Z,56.83
2023-01-29T08:54:22.230Z,55.25
2023-01-29T08:56:51.851Z,55.58
2023-01-29T08:59:18.828Z,51.83
2023-01-29T09:01:45.611Z,55.67
2023-01-29T09:04:12.328Z,52.67
2023-01-29T09:06:40.405Z,54.78
2023-01-29T09:09:07.170Z,58.45
2023-01-29T09:11:33.877Z,50.05
2023-01-29T09:14:02.503Z,48.97
2023-01-29T09:16:30.044Z,55.67
2023-01-29T09:18:56.898Z,51.75
2023-01-29T09:21:25.687Z,48.92
2023-01-29T09:23:52.541Z,54.40
2023-01-29T09:26:19.514Z,57.17
2023-01-29T09:28:48.839Z,48.13
2023-01-29T09:31:17.577Z,52.42
2023-01-29T09:33:44.426Z,57.88
2023-01-29T09:36:13.770Z,53.13
2023-01-29T09:38:40.611Z,47.28
2023-01-29T09:41:24.155Z,51.75
2023-01-29T09:43:58.091Z,52.63
2023-01-29T09:46:33.812Z,50.25
2023-01-29T09:49:06.253Z,53.90
2023-01-29T09:51:38.514Z,58.63
2023-01-29T09:54:17.338Z,57.67
2023-01-29T09:56:46.142Z,54.35
2023-01-29T09:59:17.190Z,60.95
2023-01-29T10:01:55.563Z,59.40
2023-01-29T10:04:50.567Z,70.63
2023-01-29T10:07:32.921Z,59.10
2023-01-29T10:10:16.215Z,61.47
2023-01-29T10:12:57.370Z,61.50
2023-01-29T10:15:38.332Z,65.80
2023-01-29T10:18:33.974Z,63.60
2023-01-29T10:21:11.540Z,68.80
2023-01-29T10:23:42.923Z,62.53
2023-01-29T10:28:42.950Z,60.45
2023-01-29T10:33:49.140Z,60.83
2023-01-29T10:36:34.772Z,57.30
2023-01-29T10:39:02.942Z,63.72
2023-01-29T10:41:56.370Z,64.90
2023-01-29T10:44:37.859Z,63.28
2023-01-29T10:47:31.926Z,59.45
2023-01-29T10:50:16.349Z,62.35
2023-01-29T10:53:04.685Z,58.88
2023-01-29T10:55:47.153Z,57.97
2023-01-29T10:58:26.843Z,56.90
2023-01-29T11:00:53.788Z,64.45
2023-01-29T11:03:28.418Z,59.13
2023-01-29T11:06:08.511Z,62.08
2023-01-29T11:08:43.612Z,62.22
2023-01-29T11:11:14.291Z,58.80
2023-01-29T11:13:46.675Z,60.63
2023-01-29T11:16:14.501Z,52.05
2023-01-29T11:18:56.485Z,58.30
2023-01-29T11:21:26.969Z,54.72
2023-01-29T11:24:15.107Z,50.77
2023-01-29T11:26:45.886Z,57.80
2023-01-29T11:29:42.518Z,53.80
2023-01-29T11:32:14.097Z,48.85
2023-01-29T11:34:57.759Z,46.83
2023-01-29T11:37:32.871Z,47.80
2023-01-29T11:39:59.821Z,47.38
2023-01-29T11:42:31.284Z,53.30
2023-01-29T11:44:58.110Z,48.00
2023-01-29T11:47:27.865Z,43.28
2023-01-29T11:49:56.275Z,39.78
2023-01-29T11:52:34.236Z,36.30
2023-01-29T11:55:05.429Z,33.28
2023-01-29T11:57:35.259Z,42.10
2023-01-29T12:00:05.185Z,33.30
2023-01-29T12:02:37.412Z,37.53
2023-01-29T12:05:15.652Z,38.25
2023-01-29T12:07:46.290Z,35.45
2023-01-29T12:10:30.710Z,36.03
2023-01-29T12:13:05.551Z,33.58
2023-01-29T12:15:32.311Z,35.03
2023-01-29T12:18:07.578Z,30.98
2023-01-29T12:20:39.439Z,33.85
2023-01-29T12:23:41.956Z,27.67
2023-01-29T12:26:12.948Z,28.20
2023-01-29T12:28:49.585Z,31.48
2023-01-29T12:31:27.050Z,29.92
2023-01-29T12:34:02.093Z,31.10
2023-01-29T12:36:38.456Z,34.60
2023-01-29T12:39:09.703Z,39.30
2023-01-29T12:41:46.551Z,37.22
2023-01-29T12:44:18.516Z,34.33
2023-01-29T12:46:49.425Z,40.55
2023-01-29T12:49:23.128Z,33.70
2023-01-29T12:52:00.442Z,39.70
2023-01-29T12:54:35.591Z,43.30
2023-01-29T12:57:11.436Z,40.90
2023-01-29T12:59:43.293Z,42.10
2023-01-29T13:02:23.618Z,39.65
2023-01-29T13:04:58.091Z,38.78
2023-01-29T13:07:32.908Z,41.08
2023-01-29T13:10:07.830Z,38.05
2023-01-29T13:12:36.199Z,42.85
2023-01-29T13:15:12.871Z,43.20
2023-01-29T13:17:45.210Z,47.38
2023-01-29T13:20:19.734Z,47.72
2023-01-29T13:22:49.504Z,49.85
2023-01-29T13:25:20.226Z,48.67
2023-01-29T13:27:48.902Z,51.10
2023-01-29T13:30:29.694Z,55.13
2023-01-29T13:32:59.310Z,46.50
2023-01-29T13:35:26.027Z,56.80
2023-01-29T13:37:54.977Z,50.60
2023-01-29T13:40:25.713Z,52.58
2023-01-29T13:42:54.872Z,50.55
2023-01-29T13:45:46.307Z,50.25
2023-01-29T13:48:26.585Z,56.55
2023-01-29T13:50:55.526Z,68.10
2023-01-29T13:53:28.022Z,54.95
2023-01-29T13:56:29.809Z,49.42
2023-01-29T13:58:58.221Z,46.10
2023-01-29T14:02:01.593Z,51.60
2023-01-29T14:04:30.157Z,46.50
2023-01-29T14:07:00.308Z,50.83
2023-01-29T14:10:01.061Z,49.38
2023-01-29T14:13:17.227Z,53.17
2023-01-29T14:15:45.035Z,57.38
2023-01-29T14:18:18.182Z,57.22
2023-01-29T14:21:02.381Z,55.08
2023-01-29T14:23:41.323Z,52.22
2023-01-29T14:26:24.381Z,47.42
2023-01-29T14:29:00.005Z,51.40
2023-01-29T14:31:32.283Z,53.05
2023-01-29T14:34:05.998Z,55.53
2023-01-29T14:36:40.287Z,48.70
2023-01-29T14:39:19.150Z,47.25
2023-01-29T14:41:46.098Z,52.97
2023-01-29T14:44:56.751Z,61.50
2023-01-29T14:48:03.167Z,58.85
2023-01-29T14:50:51.111Z,53.75
2023-01-29T14:53:30.288Z,58.33
2023-01-29T14:56:02.376Z,57.67
2023-01-29T14:58:39.086Z,59.95
2023-01-29T15:01:25.952Z,63.63
2023-01-29T15:03:58.752Z,68.97
2023-01-29T15:06:32.186Z,65.95
2023-01-29T15:09:05.557Z,66.93
2023-01-29T15:11:40.651Z,66.03
2023-01-29T15:14:18.857Z,76.63
2023-01-29T15:16:59.365Z,75.55
2023-01-29T15:19:31.920Z,58.63
2023-01-29T15:22:10.693Z,81.50
2023-01-29T15:24:38.981Z,75.30
2023-01-29T15:27:11.409Z,75.60
2023-01-29T15:29:39.552Z,70.40
2023-01-29T15:32:16.269Z,72.63
2023-01-29T15:34:43.918Z,66.30
2023-01-29T15:37:48.905Z,74.32
2023-01-29T15:40:20.127Z,68.53
2023-01-29T15:42:49.308Z,73.28
2023-01-29T15:45:33.507Z,63.97
2023-01-29T15:48:37.629Z,60.88
2023-01-29T15:51:08.747Z,67.35
2023-01-29T15:53:45.852Z,59.15
2023-01-29T15:56:16.404Z,60.03
2023-01-29T15:58:46.839Z,73.72
2023-01-29T16:01:14.163Z,75.10
2023-01-29T16:03:43.484Z,68.55
2023-01-29T16:06:11.861Z,72.47
2023-01-29T16:08:40.245Z,68.38
2023-01-29T16:11:08.770Z,72.78
2023-01-29T16:13:39.361Z,76.05
2023-01-29T16:16:19.861Z,73.45
2023-01-29T16:18:59.503Z,77.80
2023-01-29T16:21:30.715Z,74.15
2023-01-29T16:24:04.275Z,77.67
2023-01-29T16:26:35.261Z,73.40
2023-01-29T16:29:06.360Z,76.90
2023-01-29T16:31:35.660Z,76.43
2023-01-29T16:34:09.888Z,71.00
2023-01-29T16:36:46.697Z,74.97
2023-01-29T16:39:19.810Z,75.28
2023-01-29T16:42:19.264Z,74.22
2023-01-29T16:44:47.634Z,72.57
2023-01-29T16:47:20.599Z,73.57
2023-01-29T16:49:52.251Z,74.53
2023-01-29T16:52:23.622Z,69.50
2023-01-29T16:57:31.915Z,76.13
2023-01-29T17:00:04.444Z,75.68
2023-01-29T17:02:39.647Z,73.97
2023-01-29T17:05:18.158Z,66.85
2023-01-29T17:07:46.892Z,78.47
2023-01-29T17:10:20.011Z,73.15
2023-01-29T17:12:53.493Z,65.57
2023-01-29T17:15:33.066Z,72.93
2023-01-29T17:18:03.150Z,68.57
2023-01-29T17:20:34.322Z,67.63
2023-01-29T17:23:03.293Z,64.10
2023-01-29T17:25:30.307Z,61.38
2023-01-29T17:28:11.358Z,58.65
2023-01-29T17:31:05.768Z,62.72
2023-01-29T17:33:35.108Z,60.50
2023-01-29T17:36:13.151Z,64.68
2023-01-29T17:38:40.967Z,57.83
2023-01-29T17:41:12.061Z,61.03
2023-01-29T17:43:38.895Z,51.97
2023-01-29T17:46:05.974Z,56.47
2023-01-29T17:48:32.922Z,61.28
2023-01-29T17:51:03.664Z,55.45
2023-01-29T17:53:47.347Z,51.95
2023-01-29T17:56:16.552Z,55.75
2023-01-29T17:58:43.612Z,60.03
2023-01-29T18:01:10.523Z,50.83
2023-01-29T18:03:38.152Z,56.50
2023-01-29T18:06:10.389Z,52.00
2023-01-29T18:08:40.901Z,55.22
2023-01-29T18:11:12.400Z,51.87
2023-01-29T18:13:39.192Z,54.38
2023-01-29T18:16:06.692Z,64.20
2023-01-29T18:18:33.517Z,52.47
2023-01-29T18:21:00.508Z,57.13
2023-01-29T18:23:27.539Z,63.08
2023-01-29T18:25:59.636Z,60.25
2023-01-29T18:28:26.581Z,62.63
2023-01-29T18:30:53.813Z,64.63
2023-01-29T18:33:21.551Z,57.47
2023-01-29T18:35:48.923Z,64.57
2023-01-29T18:38:17.102Z,59.60
2023-01-29T18:40:46.285Z,53.05
2023-01-29T18:43:17.069Z,61.05
2023-01-29T18:45:44.482Z,66.57
2023-01-29T18:48:11.652Z,63.50
2023-01-29T18:50:38.403Z,68.18
2023-01-29T18:53:09.590Z,67.38
2023-01-29T18:55:54.038Z,69.57
2023-01-29T18:58:25.501Z,65.45
2023-01-29T19:00:55.290Z,68.63
2023-01-29T19:03:22.578Z,70.93
2023-01-29T19:05:50.277Z,63.97
2023-01-29T19:08:17.360Z,63.83
2023-01-29T19:10:44.231Z,68.38
2023-01-29T19:13:11.238Z,62.00
2023-01-29T19:15:43.644Z,65.30
2023-01-29T19:18:12.069Z,61.85
2023-01-29T19:20:41.137Z,71.68
2023-01-29T19:23:11.434Z,59.20
2023-01-29T19:25:40.508Z,59.47
2023-01-29T19:28:07.613Z,58.13
2023-01-29T19:30:38.000Z,60.70
2023-01-29T19:33:14.692Z,67.20
2023-01-29T19:35:45.966Z,62.90
2023-01-29T19:40:39.583Z,48.13
2023-01-29T19:43:06.626Z,54.42
2023-01-29T19:45:49.976Z,61.17
2023-01-29T19:48:19.421Z,60.25
2023-01-29T19:50:52.269Z,68.65
2023-01-29T19:53:21.941Z,61.00
2023-01-29T19:55:56.409Z,56.90
2023-01-29T19:58:23.516Z,58.25
2023-01-29T20:00:54.768Z,57.97
2023-01-29T20:03:24.053Z,58.17
2023-01-29T20:05:51.029Z,60.83
2023-01-29T20:08:19.929Z,55.22
2023-01-29T20:10:47.788Z,66.38
2023-01-29T20:13:15.506Z,62.88
2023-01-29T20:15:44.372Z,62.67
2023-01-29T20:18:12.377Z,56.90
2023-01-29T20:20:41.624Z,68.38
2023-01-29T20:23:09.289Z,59.45
2023-01-29T20:25:36.609Z,63.45
2023-01-29T20:28:04.398Z,63.58
2023-01-29T20:30:32.134Z,59.78
2023-01-29T20:32:59.295Z,59.28
2023-01-29T20:35:27.109Z,68.80
2023-01-29T20:37:55.561Z,56.85
2023-01-29T20:40:22.745Z,63.33
2023-01-29T20:42:49.833Z,55.78
2023-01-29T20:45:17.728Z,64.03
2023-01-29T20:47:45.473Z,60.15
2023-01-29T20:50:14.839Z,61.58
2023-01-29T20:52:42.524Z,60.67
2023-01-29T20:55:15.415Z,61.20
2023-01-29T20:57:42.823Z,65.03
2023-01-29T21:00:12.035Z,71.45
2023-01-29T21:02:39.486Z,56.42
2023-01-29T21:05:07.128Z,62.28
2023-01-29T21:07:34.123Z,62.95
2023-01-29T21:10:02.278Z,60.55
2023-01-29T21:12:30.722Z,61.10
2023-01-29T21:14:57.478Z,60.22
2023-01-29T21:17:26.686Z,58.60
2023-01-29T21:19:54.687Z,58.33
2023-01-29T21:22:21.751Z,56.53
2023-01-29T21:24:48.656Z,59.38
2023-01-29T21:27:15.704Z,57.30
2023-01-29T21:29:44.034Z,66.93
2023-01-29T21:32:10.962Z,55.15
2023-01-29T21:34:37.809Z,57.55
2023-01-29T21:37:04.557Z,58.08
2023-01-29T21:39:32.925Z,49.00
2023-01-29T21:42:00.039Z,55.13
2023-01-29T21:44:27.459Z,52.00
2023-01-29T21:46:56.284Z,52.88
2023-01-29T21:49:23.777Z,49.80
2023-01-29T21:51:51.291Z,50.22
2023-01-29T21:54:18.386Z,46.92
2023-01-29T21:56:45.186Z,56.95
2023-01-29T21:59:11.962Z,54.80
2023-01-29T22:01:38.984Z,49.97
2023-01-29T22:04:07.706Z,45.13
2023-01-29T22:06:34.474Z,49.05
2023-01-29T22:09:01.508Z,48.92
2023-01-29T22:11:28.542Z,53.45
2023-01-29T22:13:55.330Z,48.47
2023-01-29T22:16:24.235Z,46.92
2023-01-29T22:18:51.002Z,43.22
2023-01-29T22:21:19.890Z,44.90
2023-01-29T22:23:48.489Z,43.58
2023-01-29T22:26:15.860Z,41.05
2023-01-29T22:28:42.937Z,41.15
2023-01-29T22:31:10.480Z,51.58
2023-01-29T22:33:37.425Z,37.28
2023-01-29T22:36:05.185Z,39.22
2023-01-29T22:38:33.359Z,39.88
2023-01-29T22:41:02.560Z,42.28
2023-01-29T22:43:30.447Z,38.35
2023-01-29T22:45:57.327Z,29.10
2023-01-29T22:48:24.722Z,33.40
2023-01-29T22:50:56.420Z,29.58
2023-01-29T22:53:23.688Z,30.90
2023-01-29T22:55:55.513Z,33.92
2023-01-29T22:58:22.916Z,31.30
2023-01-29T23:00:52.548Z,28.55
2023-01-29T23:03:20.111Z,30.05
2023-01-29T23:05:46.853Z,32.08
2023-01-29T23:08:13.953Z,29.90
2023-01-29T23:10:42.904Z,33.00
2023-01-29T23:13:12.701Z,36.67
2023-01-29T23:15:39.774Z,27.55
2023-01-29T23:18:06.682Z,29.13
2023-01-29T23:20:33.673Z,27.95
2023-01-29T23:23:00.783Z,21.98
2023-01-29T23:25:27.512Z,24.02
2023-01-29T23:27:54.298Z,26.50
2023-01-29T23:30:22.545Z,19.95
2023-01-29T23:32:49.741Z,25.42
2023-01-29T23:35:16.759Z,24.67
2023-01-29T23:37:43.675Z,21.63
2023-01-29T23:40:11.903Z,23.02
2023-01-29T23:42:47.711Z,16.77
2023-01-29T23:45:14.907Z,22.02
2023-01-29T23:47:43.158Z,16.17
2023-01-29T23:50:11.458Z,23.73
2023-01-29T23:52:40.326Z,28.13
2023-01-29T23:55:09.717Z,19.40
2023-01-29T23:57:38.434Z,23.33
